Terminal Aerodrome Forecast
Issued by NWS

Home | Current Version | Previous Version | Graphics & Text | Print | Product List | Glossary On
Versions: 1 2 3 4 5 6 7 8 9 10 11 12 13 14
000
FTUS43 KGRB 071135
TAFRHI
TAF
KRHI 071135Z 0712/0812 25015G24KT 6SM -SHSN OVC014
      TEMPO 0712/0716 2SM -SHSN
     FM071600 26014G24KT P6SM -SN OVC015
     FM080600 27011G17KT 5SM -SN OVC014
      TEMPO 0809/0812 2SM -SHSN=

USA.gov is the U.S. government's official web portal to all federal, state and local government web resources and services.